createdAt,value
2022-09-28T00:15:29.000Z,5.70
2022-09-28T00:25:29.000Z,6.00
2022-09-28T00:35:29.000Z,6.70
2022-09-28T00:45:30.000Z,5.90
2022-09-28T00:55:30.000Z,5.10
2022-09-28T01:05:30.000Z,5.80
2022-09-28T01:15:31.000Z,5.80
2022-09-28T01:25:31.000Z,5.70
2022-09-28T01:45:32.000Z,6.10
2022-09-28T01:55:32.000Z,6.60
2022-09-28T02:05:32.000Z,5.80
2022-09-28T02:15:33.000Z,6.70
2022-09-28T02:25:33.000Z,5.60
2022-09-28T02:35:34.000Z,5.40
2022-09-28T02:45:34.000Z,4.80
2022-09-28T02:55:35.000Z,5.70
2022-09-28T03:15:36.000Z,5.90
2022-09-28T03:25:36.000Z,6.50
2022-09-28T03:35:36.000Z,8.20
2022-09-28T03:45:37.000Z,6.70
2022-09-28T03:55:37.000Z,6.00
2022-09-28T04:05:38.000Z,7.20
2022-09-28T04:15:38.000Z,7.50
2022-09-28T04:25:39.000Z,7.00
2022-09-28T04:45:39.000Z,7.20
2022-09-28T04:55:40.000Z,8.30
2022-09-28T05:05:40.000Z,7.80
2022-09-28T05:15:41.000Z,9.00
2022-09-28T05:25:41.000Z,10.30
2022-09-28T05:35:41.000Z,14.60
2022-09-28T05:35:41.000Z,14.60
2022-09-28T05:45:42.000Z,13.50
2022-09-28T05:55:42.000Z,12.10
2022-09-28T06:15:42.000Z,12.30
2022-09-28T06:25:43.000Z,11.80
2022-09-28T06:35:43.000Z,12.70
2022-09-28T06:45:43.000Z,13.40
2022-09-28T06:55:44.000Z,14.30
2022-09-28T07:05:44.000Z,14.50
2022-09-28T07:15:44.000Z,15.70
2022-09-28T07:25:44.000Z,14.80
2022-09-28T07:45:45.000Z,15.20
2022-09-28T07:55:45.000Z,24.00
2022-09-28T08:05:45.000Z,21.60
2022-09-28T08:15:45.000Z,19.40
2022-09-28T08:25:45.000Z,16.40
2022-09-28T08:35:45.000Z,10.30
2022-09-28T08:45:46.000Z,6.40
2022-09-28T08:55:46.000Z,4.50
2022-09-28T09:15:46.000Z,4.40
2022-09-28T09:25:46.000Z,4.10
2022-09-28T09:35:46.000Z,5.50
2022-09-28T09:45:46.000Z,4.20
2022-09-28T09:55:46.000Z,4.40
2022-09-28T10:05:46.000Z,5.70
2022-09-28T10:15:46.000Z,4.00
2022-09-28T10:25:46.000Z,3.50
2022-09-28T10:45:47.000Z,5.30
2022-09-28T10:55:47.000Z,5.80
2022-09-28T11:05:47.000Z,6.90
2022-09-28T11:15:47.000Z,6.20
2022-09-28T11:25:47.000Z,5.20
2022-09-28T11:35:47.000Z,4.90
2022-09-28T11:45:47.000Z,6.90
2022-09-28T11:55:47.000Z,5.90
2022-09-28T11:55:47.000Z,5.90
2022-09-28T12:15:47.000Z,5.60
2022-09-28T12:25:47.000Z,5.30
2022-09-28T12:35:47.000Z,4.20
2022-09-28T12:35:47.000Z,4.20
2022-09-28T12:45:47.000Z,4.10
2022-09-28T12:55:47.000Z,4.60
2022-09-28T13:05:47.000Z,5.70
2022-09-28T13:15:47.000Z,6.60
2022-09-28T13:25:47.000Z,6.50
2022-09-28T13:45:47.000Z,6.40
2022-09-28T13:55:47.000Z,5.30
2022-09-28T14:05:47.000Z,4.30
2022-09-28T14:15:47.000Z,4.80
2022-09-28T14:25:47.000Z,4.60
2022-09-28T14:35:47.000Z,5.60
2022-09-28T14:45:47.000Z,5.60
2022-09-28T14:55:47.000Z,6.90
2022-09-28T15:15:47.000Z,6.10
2022-09-28T15:25:46.000Z,6.50
2022-09-28T15:35:46.000Z,5.70
2022-09-28T15:45:46.000Z,6.20
2022-09-28T15:55:46.000Z,6.10
2022-09-28T16:05:46.000Z,6.20
2022-09-28T16:15:46.000Z,6.90
2022-09-28T16:25:46.000Z,5.90
2022-09-28T16:45:46.000Z,8.50
2022-09-28T16:55:46.000Z,7.70
2022-09-28T17:05:46.000Z,10.60
2022-09-28T17:15:46.000Z,11.80
2022-09-28T17:25:46.000Z,10.00
2022-09-28T17:35:46.000Z,11.10
2022-09-28T17:45:46.000Z,10.80
2022-09-28T17:55:46.000Z,11.50
2022-09-28T18:15:47.000Z,12.40
2022-09-28T18:25:47.000Z,13.50
2022-09-28T18:35:47.000Z,14.40
2022-09-28T18:45:47.000Z,15.00
2022-09-28T18:55:47.000Z,18.80
2022-09-28T19:05:48.000Z,18.80
2022-09-28T19:15:48.000Z,19.50
2022-09-28T19:25:48.000Z,19.80
2022-09-28T19:45:49.000Z,21.50
2022-09-28T19:55:49.000Z,19.60
2022-09-28T20:05:50.000Z,17.60
2022-09-28T20:15:50.000Z,15.60
2022-09-28T20:25:51.000Z,15.70
2022-09-28T20:35:51.000Z,15.80
2022-09-28T20:45:51.000Z,14.30
2022-09-28T20:55:52.000Z,13.50
2022-09-28T21:15:53.000Z,16.50
2022-09-28T21:25:53.000Z,15.30
2022-09-28T21:35:53.000Z,14.20
2022-09-28T21:45:54.000Z,15.90
2022-09-28T21:55:54.000Z,13.90
2022-09-28T22:05:55.000Z,13.70
2022-09-28T22:15:55.000Z,13.30
2022-09-28T22:25:56.000Z,17.30
2022-09-28T22:45:57.000Z,15.30
2022-09-28T22:55:57.000Z,16.30
2022-09-28T23:05:57.000Z,15.30
2022-09-28T23:15:58.000Z,15.20
2022-09-28T23:25:58.000Z,13.30
2022-09-28T23:35:59.000Z,13.80
2022-09-28T23:45:59.000Z,15.10
2022-09-28T23:56:00.000Z,14.50
